Time;durP1;ratioP1;P1;durP2;ratioP2;P2;SDS_P1;SDS_P2;PMS_P1;PMS_P2;Temp;Humidity;BMP_temperature;BMP_pressure;BME280_temperature;BME280_humidity;BME280_pressure;Samples;Min_cycle;Max_cycle;Signal;HPM_P1;HPM_P2
2022/08/04 00:02:04;;;;;;;6.82;3.17;;;;;;;20.05;69.00;100053.28;5034247;28;20053;-68
2022/08/04 00:04:34;;;;;;;11.30;3.40;;;;;;;19.95;69.20;100036.78;5035495;28;20049;-68
2022/08/04 00:07:44;;;;;;;13.98;4.35;;;;;;;20.09;69.29;100054.22;5043748;28;20064;-68
2022/08/04 00:10:15;;;;;;;11.93;4.10;;;;;;;20.18;68.99;100053.28;5027194;28;20056;-67
2022/08/04 00:12:47;;;;;;;9.75;3.88;;;;;;;20.15;68.84;100051.16;5028720;28;20138;-68
2022/08/04 00:15:15;;;;;;;7.28;3.83;;;;;;;20.16;68.81;100058.47;5026483;28;20145;-68
2022/08/04 00:17:49;;;;;;;6.10;3.47;;;;;;;20.12;69.17;100062.03;5026765;28;20137;-68
2022/08/04 00:20:18;;;;;;;5.40;2.25;;;;;;;19.88;69.83;100040.22;5030751;28;20046;-67
2022/08/04 00:22:47;;;;;;;6.72;3.00;;;;;;;19.27;69.89;99945.91;5035050;28;20397;-68
2022/08/04 00:25:15;;;;;;;7.80;3.72;;;;;;;19.91;70.44;100064.19;5032402;28;20056;-67
2022/08/04 00:27:42;;;;;;;8.30;3.78;;;;;;;19.88;70.95;100064.88;5031703;28;20057;-68
2022/08/04 00:30:09;;;;;;;16.67;4.63;;;;;;;20.02;70.30;100059.66;5024154;28;20522;-68
2022/08/04 00:32:40;;;;;;;15.00;5.07;;;;;;;19.99;69.94;100042.56;5039845;28;20128;-67
2022/08/04 00:35:12;;;;;;;17.52;4.40;;;;;;;20.02;69.91;100039.84;5030994;28;20125;-67
2022/08/04 00:37:42;;;;;;;16.05;5.38;;;;;;;20.12;69.77;100044.19;5016579;28;20089;-68
2022/08/04 00:40:41;;;;;;;13.65;4.80;;;;;;;20.02;70.45;100042.66;5023124;28;20058;-68
2022/08/04 00:43:29;;;;;;;12.65;5.97;;;;;;;19.98;70.66;100030.41;5033224;28;20465;-67
2022/08/04 00:46:17;;;;;;;9.13;5.60;;;;;;;19.84;71.05;100036.44;5020886;28;20407;-66
2022/08/04 00:49:12;;;;;;;13.50;6.28;;;;;;;19.78;71.18;100042.69;5023279;28;20091;-67
2022/08/04 00:51:45;;;;;;;11.85;5.10;;;;;;;19.81;70.95;100048.47;5015418;28;20134;-67
2022/08/04 00:54:40;;;;;;;18.00;6.38;;;;;;;19.92;70.96;100046.00;5026363;28;20509;-66
2022/08/04 00:57:33;;;;;;;15.18;6.45;;;;;;;20.05;70.46;100041.13;5031050;28;20229;-67
2022/08/04 01:00:10;;;;;;;15.07;4.72;;;;;;;19.84;70.43;100012.94;5029898;28;20085;-65
2022/08/04 01:02:52;;;;;;;14.48;5.97;;;;;;;19.87;70.77;100034.91;5025750;28;20131;-65
2022/08/04 01:05:54;;;;;;;13.40;6.22;;;;;;;19.91;70.67;100040.69;5026991;28;20125;-74
2022/08/04 01:08:30;;;;;;;14.57;6.35;;;;;;;19.91;70.53;100035.84;5017288;28;20505;-75
2022/08/04 01:11:23;;;;;;;10.95;5.75;;;;;;;19.92;70.82;100037.47;5019550;28;20133;-75
2022/08/04 01:14:04;;;;;;;9.82;4.40;;;;;;;19.69;71.43;100027.81;5024113;28;20435;-69
2022/08/04 01:16:38;;;;;;;11.45;6.93;;;;;;;19.65;71.43;100024.88;5032563;28;20103;-69
2022/08/04 01:19:21;;;;;;;11.85;6.05;;;;;;;19.68;71.46;100015.66;5033071;28;20470;-69
2022/08/04 01:22:14;;;;;;;12.38;6.13;;;;;;;19.98;70.89;100038.91;5022244;28;20051;-69
2022/08/04 01:25:10;;;;;;;15.25;5.85;;;;;;;20.12;70.50;100030.84;5033781;28;20512;-68
2022/08/04 01:28:01;;;;;;;11.88;5.72;;;;;;;20.16;70.47;100035.78;5015529;28;20128;-69
2022/08/04 01:30:32;;;;;;;15.35;6.43;;;;;;;20.15;70.03;100028.47;5028286;28;20049;-69
2022/08/04 01:33:07;;;;;;;16.15;6.53;;;;;;;20.16;69.85;100018.78;5028146;28;20084;-69
2022/08/04 01:35:42;;;;;;;10.00;5.95;;;;;;;20.25;69.78;100028.81;5027775;28;20087;-69
2022/08/04 01:38:29;;;;;;;10.32;5.60;;;;;;;20.19;69.82;100037.91;5023031;28;20153;-70
2022/08/04 01:41:01;;;;;;;11.77;6.63;;;;;;;20.10;69.96;100026.69;5030135;28;20084;-69
2022/08/04 01:43:29;;;;;;;19.13;7.25;;;;;;;20.20;70.10;100031.06;5027672;28;20168;-70
2022/08/04 01:45:59;;;;;;;12.93;6.82;;;;;;;20.19;70.06;100030.22;5018078;28;20053;-69
2022/08/04 01:48:27;;;;;;;9.77;5.47;;;;;;;20.11;70.29;100032.03;5032808;28;20132;-69
2022/08/04 01:51:01;;;;;;;12.27;6.55;;;;;;;19.93;71.23;100027.81;5027745;28;20128;-72
2022/08/04 01:53:32;;;;;;;14.23;6.85;;;;;;;19.80;71.53;100018.50;5025789;28;20124;-72
2022/08/04 01:56:01;;;;;;;14.85;6.25;;;;;;;19.89;71.21;100010.69;5033769;28;20156;-70
2022/08/04 01:58:30;;;;;;;17.65;5.93;;;;;;;20.03;71.25;100024.50;5023634;28;20172;-69
2022/08/04 02:01:01;;;;;;;12.68;6.18;;;;;;;20.24;70.72;100031.97;5025896;28;20152;-70
2022/08/04 02:03:37;;;;;;;13.48;5.70;;;;;;;20.31;70.04;100020.88;5020198;28;20091;-70
2022/08/04 02:06:49;;;;;;;13.23;6.40;;;;;;;20.32;69.82;100023.34;5045169;28;20056;-70
2022/08/04 02:09:37;;;;;;;12.25;6.05;;;;;;;20.31;69.86;100020.88;5036768;28;20069;-70
2022/08/04 02:12:42;;;;;;;11.52;6.45;;;;;;;20.32;69.70;100012.00;5026684;28;20050;-70
2022/08/04 02:15:29;;;;;;;15.52;6.72;;;;;;;20.36;69.71;100017.78;5026116;28;20535;-71
2022/08/04 02:18:02;;;;;;;11.07;7.07;;;;;;;20.34;69.65;100012.47;5023717;28;20138;-71
2022/08/04 02:20:36;;;;;;;16.63;6.68;;;;;;;20.27;69.91;100022.75;5025121;28;20128;-71
2022/08/04 02:23:13;;;;;;;16.83;6.93;;;;;;;20.05;70.23;99995.78;5025672;28;20148;-69
2022/08/04 02:25:46;;;;;;;17.77;7.82;;;;;;;20.13;69.92;99987.13;5030105;28;20085;-71
2022/08/04 02:28:28;;;;;;;10.38;6.55;;;;;;;20.19;70.07;100001.06;5024455;28;20144;-71
2022/08/04 02:31:06;;;;;;;18.00;6.90;;;;;;;20.12;70.43;100004.50;5031395;28;20420;-72
2022/08/04 02:33:43;;;;;;;17.08;7.20;;;;;;;20.03;70.29;99982.00;5020398;28;20152;-71
2022/08/04 02:36:19;;;;;;;18.75;8.73;;;;;;;20.00;70.49;99991.19;5030689;28;20552;-71
2022/08/04 02:38:55;;;;;;;15.60;8.65;;;;;;;19.97;70.15;100000.41;5031766;28;20084;-70
2022/08/04 02:41:24;;;;;;;17.77;7.88;;;;;;;19.92;70.39;99985.66;5030751;28;20065;-71
2022/08/04 02:43:57;;;;;;;20.33;8.98;;;;;;;20.01;70.21;99987.19;5031706;28;20049;-71
2022/08/04 02:46:24;;;;;;;15.38;7.38;;;;;;;19.87;70.09;99973.38;5025012;28;20137;-70
2022/08/04 02:48:52;;;;;;;17.23;7.95;;;;;;;20.06;70.60;99998.25;5022518;28;20077;-71
2022/08/04 02:51:33;;;;;;;16.83;7.70;;;;;;;20.01;70.49;99973.00;5022227;28;20579;-71
2022/08/04 02:54:04;;;;;;;15.55;6.95;;;;;;;20.04;70.96;99992.13;5026054;28;20080;-69
2022/08/04 02:56:34;;;;;;;7.47;4.18;;;;;;;19.91;71.30;99984.84;5029936;28;20583;-71
2022/08/04 02:59:04;;;;;;;12.85;6.90;;;;;;;20.01;71.19;100012.69;5017932;28;20053;-70
2022/08/04 03:01:32;;;;;;;13.18;6.72;;;;;;;19.93;71.24;99999.47;5017216;28;20145;-71
2022/08/04 03:04:18;;;;;;;14.55;7.22;;;;;;;20.01;71.16;100007.00;5020864;28;20064;-71
2022/08/04 03:07:05;;;;;;;14.77;7.10;;;;;;;19.96;71.34;100003.59;5030649;28;20045;-72
2022/08/04 03:10:04;;;;;;;12.20;7.47;;;;;;;20.05;71.00;99999.44;5032027;28;20492;-72
2022/08/04 03:13:08;;;;;;;16.17;8.27;;;;;;;20.10;70.58;99993.53;5031557;28;20080;-72
2022/08/04 03:15:57;;;;;;;12.25;8.05;;;;;;;20.13;70.58;99995.63;5016493;28;20076;-71
2022/08/04 03:19:01;;;;;;;25.13;7.88;;;;;;;20.01;70.62;99997.69;5031606;28;20045;-70
2022/08/04 03:21:27;;;;;;;23.85;8.30;;;;;;;20.01;70.76;99995.69;5038207;28;20465;-70
2022/08/04 03:24:08;;;;;;;16.73;7.78;;;;;;;19.82;71.05;99981.31;5029908;28;20124;-69
2022/08/04 03:27:05;;;;;;;19.05;8.48;;;;;;;19.90;70.77;99988.84;5027067;28;20073;-68
2022/08/04 03:30:00;;;;;;;16.80;7.07;;;;;;;19.88;70.82;99985.53;5022583;28;20112;-68
2022/08/04 03:32:49;;;;;;;13.45;7.70;;;;;;;19.73;71.19;99972.13;5029325;28;20049;-68
2022/08/04 03:35:38;;;;;;;16.05;8.27;;;;;;;19.90;70.79;99988.84;5023776;28;20107;-69
2022/08/04 03:38:23;;;;;;;20.65;8.70;;;;;;;19.97;70.48;99974.09;5020011;28;20140;-67
2022/08/04 03:41:14;;;;;;;17.42;8.45;;;;;;;20.06;70.48;99975.56;5022698;28;20068;-68
2022/08/04 03:44:08;;;;;;;19.40;9.45;;;;;;;20.12;70.38;99979.81;5023790;28;20530;-68
2022/08/04 03:46:38;;;;;;;21.75;9.85;;;;;;;20.21;70.12;99985.34;5021624;28;20152;-68
2022/08/04 03:49:19;;;;;;;17.85;7.70;;;;;;;20.13;70.34;99981.44;5021673;28;20086;-68
2022/08/04 03:55:23;;;;;;;19.90;9.02;;;;;;;20.28;70.05;99981.91;5029278;28;20080;-69
2022/08/04 03:58:11;;;;;;;20.58;10.95;;;;;;;20.29;70.11;99981.53;5022636;28;20125;-69
2022/08/04 04:00:59;;;;;;;23.20;10.48;;;;;;;20.29;70.00;99983.53;5026825;28;20083;-70
2022/08/04 04:03:53;;;;;;;27.90;11.40;;;;;;;20.38;70.35;99980.56;5048115;28;20137;-68
2022/08/04 04:06:35;;;;;;;21.73;10.43;;;;;;;20.44;70.26;99981.94;5033360;28;20096;-69
2022/08/04 04:09:36;;;;;;;27.00;11.48;;;;;;;20.54;70.13;99978.63;5045795;28;20045;-69
2022/08/04 04:12:32;;;;;;;27.35;11.23;;;;;;;20.56;70.29;99971.41;5037247;28;20057;-69
2022/08/04 04:15:17;;;;;;;25.50;10.75;;;;;;;20.56;69.99;99981.94;5052651;28;20053;-68
2022/08/04 04:18:06;;;;;;;27.42;11.02;;;;;;;20.51;69.83;99979.34;5047496;28;20085;-68
2022/08/04 04:20:57;;;;;;;20.95;10.05;;;;;;;20.49;69.75;99976.03;5016024;28;20137;-68
2022/08/04 04:24:18;;;;;;;22.17;10.68;;;;;;;20.39;69.76;99968.03;5023069;28;20088;-69
2022/08/04 04:27:00;;;;;;;23.77;11.63;;;;;;;20.33;69.66;99961.78;5010035;28;20073;-69
2022/08/04 04:29:55;;;;;;;22.63;11.02;;;;;;;20.51;69.88;99974.50;5010495;28;20084;-68
2022/08/04 04:32:43;;;;;;;19.48;9.65;;;;;;;20.53;69.87;99974.97;5029575;28;20445;-68
2022/08/04 04:35:18;;;;;;;21.58;10.10;;;;;;;20.62;69.69;99979.66;5031657;28;20132;-69
2022/08/04 04:37:45;;;;;;;19.15;10.07;;;;;;;20.70;69.81;99975.84;5030456;28;20751;-70
2022/08/04 04:40:36;;;;;;;20.73;10.90;;;;;;;20.77;69.72;99961.84;5048659;28;20136;-70
2022/08/04 04:43:18;;;;;;;24.23;10.45;;;;;;;20.82;69.77;99972.94;5032975;28;20069;-71
2022/08/04 04:45:45;;;;;;;21.65;11.43;;;;;;;20.86;69.83;99982.38;5046732;28;20053;-68
2022/08/04 04:48:30;;;;;;;23.92;11.10;;;;;;;20.86;69.82;99982.38;5036222;28;20092;-68
2022/08/04 04:51:14;;;;;;;23.10;11.18;;;;;;;20.73;69.80;99952.41;5035996;28;20496;-67
2022/08/04 04:53:54;;;;;;;23.75;11.30;;;;;;;20.72;69.47;99945.91;5033855;28;20077;-67
2022/08/04 04:56:47;;;;;;;17.67;10.75;;;;;;;20.93;69.59;99967.53;5036065;28;20128;-68
2022/08/04 04:59:20;;;;;;;22.58;10.98;;;;;;;20.86;69.56;99956.81;5036533;28;20460;-68
2022/08/04 05:01:59;;;;;;;22.15;9.93;;;;;;;20.72;69.30;99940.25;5033374;28;20081;-69
2022/08/04 05:04:47;;;;;;;24.52;11.93;;;;;;;20.93;69.33;99974.03;5016157;28;20070;-69
2022/08/04 05:07:27;;;;;;;21.65;11.77;;;;;;;20.86;69.54;99967.34;5021270;28;20132;-72
2022/08/04 05:09:59;;;;;;;22.20;10.48;;;;;;;20.88;69.58;99971.44;5050976;28;20526;-71
2022/08/04 05:12:50;;;;;;;17.40;10.05;;;;;;;20.89;69.36;99973.13;5034888;28;20069;-72
2022/08/04 05:15:42;;;;;;;17.33;9.70;;;;;;;20.51;69.27;99923.47;5035388;28;20045;-72
2022/08/04 05:18:15;;;;;;;18.60;9.43;;;;;;;20.82;69.42;99970.91;5036023;28;20049;-72
2022/08/04 05:20:47;;;;;;;20.88;9.95;;;;;;;20.82;69.21;99981.44;5033468;28;20081;-73
2022/08/04 05:23:18;;;;;;;16.92;9.15;;;;;;;20.85;69.26;99991.22;5034710;28;20440;-73
2022/08/04 05:26:06;;;;;;;25.05;10.00;;;;;;;20.76;69.35;99988.56;5033656;28;20159;-72
2022/08/04 05:28:50;;;;;;;20.25;10.80;;;;;;;20.75;69.51;99984.06;5025896;28;20045;-73
2022/08/04 05:31:31;;;;;;;25.08;11.65;;;;;;;20.83;69.14;99986.75;5027198;28;20136;-72
2022/08/04 05:34:08;;;;;;;20.00;11.95;;;;;;;20.79;69.40;99991.50;5032580;28;20049;-73
2022/08/04 05:36:45;;;;;;;20.33;10.77;;;;;;;20.68;69.45;99978.19;5029636;28;20148;-72
2022/08/04 05:39:20;;;;;;;18.83;11.07;;;;;;;20.53;69.18;99959.97;5019263;28;20091;-72
2022/08/04 05:41:49;;;;;;;19.13;10.05;;;;;;;20.75;69.33;99976.41;5031754;28;20124;-71
2022/08/04 05:44:25;;;;;;;22.55;10.75;;;;;;;20.89;69.13;99989.31;5020094;28;20053;-72
2022/08/04 05:46:56;;;;;;;19.65;10.75;;;;;;;20.98;69.04;99993.63;5020300;28;20417;-72
2022/08/04 05:49:24;;;;;;;18.85;10.02;;;;;;;20.95;68.87;99987.84;5021774;28;20129;-73
2022/08/04 05:51:54;;;;;;;22.55;11.30;;;;;;;20.96;68.78;99990.34;5023504;28;20140;-67
2022/08/04 05:54:21;;;;;;;;;;;;;;;20.98;69.06;100004.97;5030294;28;20456;-68
2022/08/04 05:56:49;;;;;;;19.63;10.05;;;;;;;20.91;68.51;99993.44;5028249;28;20378;-66
2022/08/04 05:59:18;;;;;;;26.25;11.23;;;;;;;21.03;68.89;100018.09;5019240;28;20049;-69
2022/08/04 06:01:47;;;;;;;20.73;11.10;;;;;;;21.06;68.94;100020.22;5017505;28;20137;-70
2022/08/04 06:04:44;;;;;;;21.30;11.60;;;;;;;21.06;68.65;100012.50;5025404;28;20053;-67
2022/08/04 06:07:12;;;;;;;23.40;11.30;;;;;;;21.18;68.35;100019.28;5027609;28;20801;-66
2022/08/04 06:09:40;;;;;;;;;;;;;;;21.15;68.45;100020.84;5024854;28;20144;-66
2022/08/04 06:12:16;;;;;;;21.08;10.95;;;;;;;21.12;68.11;100015.06;5025640;28;20020;-67
2022/08/04 06:14:46;;;;;;;27.33;11.15;;;;;;;21.12;68.22;100027.25;5014832;22;20146;-67
2022/08/04 06:17:37;;;;;;;22.02;12.55;;;;;;;20.99;68.32;100003.81;5004323;28;20141;-67
2022/08/04 06:20:28;;;;;;;27.80;12.35;;;;;;;20.95;68.51;100000.03;4985229;28;20497;-67
2022/08/04 06:23:03;;;;;;;31.20;13.13;;;;;;;21.13;68.79;100042.25;4983589;28;20054;-67
2022/08/04 06:25:33;;;;;;;23.92;12.15;;;;;;;21.02;68.54;100028.59;4987072;28;20124;-66
2022/08/04 06:28:00;;;;;;;27.55;13.65;;;;;;;21.11;68.42;100044.66;4988043;28;20180;-66
2022/08/04 06:30:31;;;;;;;27.38;12.63;;;;;;;21.19;68.76;100043.66;4987743;28;20747;-66
2022/08/04 06:33:02;;;;;;;31.00;13.73;;;;;;;21.21;68.75;100053.47;4982944;28;20180;-66
2022/08/04 06:35:32;;;;;;;27.17;13.57;;;;;;;21.21;68.49;100044.94;4985890;28;20078;-67
2022/08/04 06:38:01;;;;;;;40.97;14.03;;;;;;;21.12;68.24;100046.31;5002634;28;20050;-67
2022/08/04 06:40:29;;;;;;;31.33;15.00;;;;;;;20.90;68.15;100020.16;4982902;28;20058;-69
2022/08/04 06:43:01;;;;;;;31.33;13.98;;;;;;;21.04;68.63;100048.94;4985936;28;20109;-67
2022/08/04 06:45:30;;;;;;;27.52;13.98;;;;;;;20.98;68.50;100039.03;4984632;28;20484;-66
2022/08/04 06:47:58;;;;;;;28.05;14.05;;;;;;;20.93;68.75;100038.50;4977663;28;20104;-71
2022/08/04 06:50:26;;;;;;;25.58;13.65;;;;;;;20.96;68.69;100047.13;4978953;28;20625;-67
2022/08/04 06:53:13;;;;;;;38.45;14.10;;;;;;;20.85;68.75;100031.78;4979976;28;20053;-66
2022/08/04 06:55:42;;;;;;;31.35;13.23;;;;;;;20.85;68.78;100045.16;4990939;28;20054;-65
2022/08/04 06:58:09;;;;;;;26.55;12.55;;;;;;;20.75;68.54;100032.31;4991735;28;20132;-67
2022/08/04 07:00:38;;;;;;;26.48;12.48;;;;;;;20.97;68.97;100056.44;4997056;28;20193;-67
2022/08/04 07:03:06;;;;;;;26.13;12.90;;;;;;;21.01;69.09;100061.03;5013070;28;20081;-67
2022/08/04 07:05:34;;;;;;;25.83;12.35;;;;;;;20.82;69.09;100007.81;4977321;28;20051;-67
2022/08/04 07:08:01;;;;;;;19.80;10.13;;;;;;;21.21;68.98;100070.50;4988803;28;20529;-66
2022/08/04 07:10:30;;;;;;;24.60;11.77;;;;;;;21.19;69.11;100060.69;4989099;28;20513;-67
2022/08/04 07:12:59;;;;;;;22.50;10.82;;;;;;;21.14;68.70;100058.94;4984549;28;20129;-66
2022/08/04 07:15:30;;;;;;;29.98;17.38;;;;;;;21.13;69.19;100039.44;4986351;28;20137;-66
2022/08/04 07:17:58;;;;;;;27.60;13.65;;;;;;;21.30;69.16;100056.16;4992422;28;20101;-65
2022/08/04 07:20:27;;;;;;;24.17;12.10;;;;;;;21.43;68.99;100054.06;4998120;28;20057;-66
2022/08/04 07:23:02;;;;;;;22.92;12.38;;;;;;;21.56;68.60;100054.78;4991373;28;20141;-68
2022/08/04 07:25:30;;;;;;;21.48;11.63;;;;;;;21.58;68.62;100060.94;4995735;28;20079;-66
2022/08/04 07:28:18;;;;;;;26.70;12.98;;;;;;;21.66;68.05;100074.94;4981512;28;20069;-67
2022/08/04 07:30:47;;;;;;;33.08;14.77;;;;;;;21.60;68.74;100064.22;4984329;28;20145;-65
2022/08/04 07:33:17;;;;;;;31.63;14.38;;;;;;;21.60;68.44;100053.69;4991085;28;20469;-66
2022/08/04 07:35:46;;;;;;;26.35;13.18;;;;;;;21.85;68.34;100077.06;4973703;28;20187;-67
2022/08/04 07:38:33;;;;;;;22.95;12.20;;;;;;;21.72;67.70;100061.31;4984944;28;20547;-66
2022/08/04 07:41:05;;;;;;;25.08;12.07;;;;;;;21.67;67.86;100055.88;4984376;28;20058;-66
2022/08/04 07:43:53;;;;;;;25.38;12.60;;;;;;;21.87;68.02;100073.84;4981154;28;20058;-66
2022/08/04 07:46:20;;;;;;;28.27;12.10;;;;;;;22.02;67.63;100075.84;4983007;28;20142;-68
2022/08/04 07:48:48;;;;;;;36.00;14.50;;;;;;;22.08;67.57;100079.22;4982844;28;20137;-66
2022/08/04 07:51:16;;;;;;;34.10;16.20;;;;;;;22.17;67.55;100072.16;4994448;28;20054;-66
2022/08/04 07:53:44;;;;;;;46.97;18.23;;;;;;;22.24;67.34;100077.19;4992334;28;20242;-65
2022/08/04 07:56:21;;;;;;;26.27;14.73;;;;;;;22.27;67.22;100079.28;4987391;28;20124;-66
2022/08/04 07:58:47;;;;;;;38.50;15.43;;;;;;;22.21;67.10;100077.94;4985943;28;20096;-67
2022/08/04 08:01:17;;;;;;;36.53;16.45;;;;;;;22.20;67.28;100082.78;4984659;28;20104;-66
2022/08/04 08:03:46;;;;;;;39.83;16.50;;;;;;;22.21;66.84;100083.63;4988332;28;20081;-66
2022/08/04 08:06:13;;;;;;;34.90;15.38;;;;;;;22.16;66.98;100072.53;4983585;28;20137;-66
2022/08/04 08:09:00;;;;;;;38.70;16.23;;;;;;;22.19;66.86;100089.69;4985413;28;20050;-67
2022/08/04 08:11:39;;;;;;;52.08;22.02;;;;;;;22.24;66.72;100083.69;4981208;28;20399;-66
2022/08/04 08:14:27;;;;;;;44.67;20.90;;;;;;;22.31;66.86;100083.03;4993537;28;20081;-67
2022/08/04 08:16:54;;;;;;;49.42;23.40;;;;;;;22.33;66.44;100077.81;5000162;28;20141;-66
2022/08/04 08:19:21;;;;;;;52.92;22.65;;;;;;;22.31;66.86;100071.66;4982127;28;20145;-66
2022/08/04 08:21:48;;;;;;;45.10;19.23;;;;;;;22.45;66.41;100076.84;4990866;28;20054;-66
2022/08/04 08:24:30;;;;;;;41.58;20.98;;;;;;;22.46;66.08;100073.66;4986784;28;20061;-66
2022/08/04 08:26:58;;;;;;;35.97;17.52;;;;;;;22.38;66.58;100065.31;4999449;28;20049;-67
2022/08/04 08:29:28;;;;;;;40.40;19.42;;;;;;;22.37;66.51;100078.72;4999348;28;20050;-67
2022/08/04 08:31:55;;;;;;;46.70;21.20;;;;;;;22.31;66.71;100074.50;4989720;28;20046;-66
2022/08/04 08:34:31;;;;;;;40.58;19.23;;;;;;;22.22;66.45;100059.66;4990892;28;20105;-66
2022/08/04 08:37:08;;;;;;;38.70;19.45;;;;;;;22.44;66.93;100097.97;4988568;28;20050;-66
2022/08/04 08:39:47;;;;;;;38.72;18.50;;;;;;;22.61;66.62;100096.72;4990490;28;20108;-66
2022/08/04 08:42:52;;;;;;;42.67;20.13;;;;;;;22.79;66.46;100091.41;4993753;28;20554;-67
2022/08/04 08:45:50;;;;;;;35.85;18.67;;;;;;;22.92;65.79;100082.34;4937831;29;20134;-66
2022/08/04 08:48:27;;;;;;;36.88;18.17;;;;;;;22.87;65.58;100091.19;4984669;28;20141;-67
2022/08/04 08:51:00;;;;;;;48.92;21.73;;;;;;;22.78;65.80;100082.03;4994065;28;20049;-67
2022/08/04 08:53:43;;;;;;;44.58;19.58;;;;;;;22.61;65.89;100068.25;4988302;28;20081;-67
2022/08/04 08:57:02;;;;;;;41.55;19.05;;;;;;;22.51;66.24;100080.22;4995318;28;20137;-67
2022/08/04 08:59:35;;;;;;;42.08;20.23;;;;;;;22.66;66.04;100088.69;4964490;28;20553;-67
2022/08/04 09:02:23;;;;;;;45.25;19.25;;;;;;;22.62;66.17;100047.13;5002680;28;20153;-74
2022/08/04 09:05:05;;;;;;;36.50;18.77;;;;;;;23.02;65.45;100077.25;5000441;28;20527;-73
2022/08/04 09:07:43;;;;;;;40.08;18.95;;;;;;;23.02;65.57;100058.16;4978199;28;20196;-74
2022/08/04 09:10:18;;;;;;;37.38;18.40;;;;;;;23.16;65.00;100084.06;5003056;28;20136;-73
2022/08/04 09:12:52;;;;;;;40.30;18.90;;;;;;;22.96;65.18;100056.81;4994642;28;20107;-73
2022/08/04 09:15:45;;;;;;;43.28;20.13;;;;;;;23.05;64.94;100082.22;4991440;28;20148;-74
2022/08/04 09:18:53;;;;;;;41.00;18.20;;;;;;;23.00;65.15;100085.34;4994135;28;20567;-73
2022/08/04 09:21:38;;;;;;;48.35;19.80;;;;;;;22.78;64.93;100070.66;4991146;28;20113;-83
2022/08/04 09:24:23;;;;;;;42.05;19.13;;;;;;;22.79;65.60;100089.38;5006955;28;20144;-75
2022/08/04 09:27:29;;;;;;;42.65;18.95;;;;;;;22.78;65.52;100090.56;4988530;28;20054;-74
2022/08/04 09:30:08;;;;;;;46.53;17.65;;;;;;;22.86;65.51;100086.66;4986939;28;20104;-73
2022/08/04 09:32:38;;;;;;;42.33;18.15;;;;;;;22.86;65.45;100091.53;4995328;28;20050;-72
2022/08/04 09:35:38;;;;;;;48.20;18.70;;;;;;;22.86;65.71;100094.38;4983753;28;20175;-74
2022/08/04 09:38:43;;;;;;;44.13;19.10;;;;;;;22.77;65.14;100094.63;4986652;28;20062;-74
2022/08/04 09:41:37;;;;;;;45.75;18.60;;;;;;;22.63;65.42;100100.00;4978515;28;20513;-73
2022/08/04 09:44:42;;;;;;;39.55;16.45;;;;;;;22.61;65.53;100102.41;5004522;28;20479;-73
2022/08/04 09:47:52;;;;;;;42.88;16.38;;;;;;;22.60;65.66;100100.78;4984733;28;20046;-74
2022/08/04 09:50:24;;;;;;;40.70;16.55;;;;;;;22.57;65.74;100104.34;4980857;28;20054;-73
2022/08/04 09:52:55;;;;;;;50.47;17.55;;;;;;;22.57;65.57;100115.75;4988648;28;20053;-74
2022/08/04 09:55:41;;;;;;;38.92;17.38;;;;;;;22.53;65.80;100101.44;4988663;28;20482;-73
2022/08/04 09:58:48;;;;;;;44.72;15.52;;;;;;;22.59;65.84;100104.78;4979582;28;20141;-74
2022/08/04 10:01:23;;;;;;;34.13;15.13;;;;;;;22.58;65.62;100100.31;4980296;28;20145;-74
2022/08/04 10:04:02;;;;;;;39.88;16.33;;;;;;;22.49;65.49;100106.19;4977692;28;20559;-75
2022/08/04 10:06:38;;;;;;;32.83;13.95;;;;;;;22.47;65.48;100103.72;4976775;28;20496;-74
2022/08/04 10:09:27;;;;;;;38.67;14.77;;;;;;;22.39;65.42;100098.25;4983668;28;20057;-74
2022/08/04 10:12:25;;;;;;;41.93;15.30;;;;;;;22.39;65.77;100073.50;4995328;28;20137;-73
2022/08/04 10:15:11;;;;;;;35.88;13.85;;;;;;;22.67;65.56;100106.63;4984330;28;20339;-74
2022/08/04 10:17:47;;;;;;;32.33;14.23;;;;;;;22.66;65.23;100102.09;4978497;28;20618;-73
2022/08/04 10:20:45;;;;;;;37.03;16.02;;;;;;;22.78;65.39;100109.69;4985335;28;20057;-73
2022/08/04 10:23:33;;;;;;;37.95;16.85;;;;;;;22.62;65.14;100106.88;4999174;28;20054;-73
2022/08/04 10:26:41;;;;;;;37.75;15.40;;;;;;;22.60;65.59;100095.06;4989331;28;20050;-74
2022/08/04 10:29:17;;;;;;;40.13;14.88;;;;;;;22.74;65.13;100112.47;4980747;28;20077;-74
2022/08/04 10:31:53;;;;;;;32.35;14.25;;;;;;;22.67;65.23;100103.75;4991391;28;20505;-73
2022/08/04 10:34:25;;;;;;;32.95;13.35;;;;;;;22.86;64.86;100108.63;5003873;28;20558;-77
2022/08/04 10:37:27;;;;;;;37.60;13.70;;;;;;;22.81;64.84;100112.59;4984151;28;20055;-78
2022/08/04 10:40:36;;;;;;;30.42;13.93;;;;;;;22.63;65.43;100080.91;4995047;28;20053;-78
2022/08/04 10:43:24;;;;;;;;;;;;;;;22.82;64.88;100114.25;4991594;28;20073;-80
2022/08/04 10:46:15;;;;;;;35.63;13.93;;;;;;;22.76;65.05;100098.66;4983618;28;19953;-76
2022/08/04 10:48:46;;;;;;;34.22;14.05;;;;;;;22.97;65.08;100125.97;5000512;28;20101;-76
2022/08/04 10:51:35;;;;;;;27.13;12.98;;;;;;;22.99;64.77;100120.72;4996717;28;20160;-76
2022/08/04 10:54:49;;;;;;;31.35;14.13;;;;;;;22.90;64.81;100121.72;5007411;28;20054;-78
2022/08/04 10:57:31;;;;;;;33.95;14.52;;;;;;;22.85;64.67;100119.19;4981266;28;20138;-76
2022/08/04 11:00:09;;;;;;;32.53;13.80;;;;;;;22.91;64.79;100117.69;4992145;28;20046;-77
2022/08/04 11:02:45;;;;;;;30.30;12.90;;;;;;;22.91;64.82;100119.72;4994093;28;20416;-78
2022/08/04 11:05:30;;;;;;;28.15;13.05;;;;;;;23.08;64.31;100121.31;5001820;28;20046;-75
2022/08/04 11:08:11;;;;;;;25.45;11.38;;;;;;;23.11;64.35;100126.25;4990634;28;20107;-75
2022/08/04 11:10:54;;;;;;;24.35;10.70;;;;;;;23.15;64.70;100116.59;4994028;28;20065;-77
2022/08/04 11:13:24;;;;;;;25.65;11.88;;;;;;;23.33;63.98;100099.84;4995116;28;20081;-74
2022/08/04 11:16:03;;;;;;;23.33;10.50;;;;;;;23.63;63.88;100127.69;4997826;28;20493;-81
2022/08/04 11:18:48;;;;;;;27.73;11.35;;;;;;;23.57;63.34;100114.94;4988637;28;20141;-76
2022/08/04 11:21:31;;;;;;;22.48;11.07;;;;;;;23.47;63.67;100126.97;4990143;28;20092;-78
2022/08/04 11:24:10;;;;;;;24.70;11.02;;;;;;;23.36;63.10;100107.63;4987457;28;20074;-80
2022/08/04 11:26:47;;;;;;;27.30;11.57;;;;;;;23.55;63.02;100125.88;4988804;28;20074;-76
2022/08/04 11:29:25;;;;;;;20.52;10.20;;;;;;;23.40;62.88;100121.94;4992863;28;20561;-76
2022/08/04 11:31:57;;;;;;;20.65;10.88;;;;;;;23.29;63.70;100110.34;4998868;28;20046;-76
2022/08/04 11:34:26;;;;;;;24.05;10.23;;;;;;;23.33;63.37;100105.53;4992584;28;20104;-75
2022/08/04 11:37:26;;;;;;;20.88;9.90;;;;;;;23.53;63.32;100119.75;4996767;28;20043;-77
2022/08/04 11:40:21;;;;;;;22.27;10.38;;;;;;;23.48;63.07;100117.19;4993471;28;20497;-77
2022/08/04 11:42:59;;;;;;;27.60;12.32;;;;;;;23.58;62.70;100117.38;4994447;28;20077;-77
2022/08/04 11:45:36;;;;;;;22.20;10.40;;;;;;;23.34;62.39;100101.47;4998315;28;20153;-79
2022/08/04 11:48:21;;;;;;;23.23;11.07;;;;;;;23.40;63.01;100111.38;4983726;28;20054;-80
2022/08/04 11:50:53;;;;;;;20.33;9.73;;;;;;;23.74;63.05;100122.19;4990664;28;20094;-80
2022/08/04 11:53:23;;;;;;;20.60;10.07;;;;;;;23.87;62.20;100117.94;5001957;28;20137;-80
2022/08/04 11:55:53;;;;;;;18.80;10.32;;;;;;;23.97;62.25;100116.47;4991294;28;20141;-79
2022/08/04 11:58:37;;;;;;;19.40;10.20;;;;;;;23.91;62.05;100096.00;4979522;28;20437;-81
2022/08/04 12:01:22;;;;;;;21.08;9.77;;;;;;;24.31;62.33;100115.41;4984131;28;20535;-80
2022/08/04 12:04:11;;;;;;;20.42;10.52;;;;;;;24.55;61.44;100127.59;4993010;28;20126;-81
2022/08/04 12:07:11;;;;;;;;;;;;;;;24.59;61.55;100123.56;4978252;28;20481;-81
2022/08/04 12:10:00;;;;;;;19.20;11.05;;;;;;;24.76;61.23;100130.75;4973078;28;20308;-80
2022/08/04 12:12:36;;;;;;;17.42;10.10;;;;;;;24.55;60.70;100079.91;4992066;28;20054;-79
2022/08/04 12:15:15;;;;;;;18.95;10.43;;;;;;;24.90;60.12;100120.72;4987519;28;20149;-81
2022/08/04 12:17:56;;;;;;;16.30;9.07;;;;;;;25.36;59.41;100111.91;4986014;28;20228;-81
2022/08/04 12:20:26;;;;;;;19.60;9.25;;;;;;;25.44;58.98;100100.16;4996305;28;20089;-80